KEAT/EAT METAR and TAF weather

Enter ICAO airport designator
Station Type Date Time Source
KEAT METAR 2021/03/02 02:55 UTC NOAA

KEAT 020255Z AUTO 00000KT 10SM CLR 06/01 A3002 RMK AO2 SLP173 T00610011 55002


Station Type Date Time Source
KEAT Decoded METAR 2021/03/02 02:55 UTC NOAA

WENATCHEE PANGBORN MEMO, WA, United States (KEAT) 47-24N 120-12W 377M
Mar 01, 2021 - 09:55 PM EST / 2021.03.02 0255 UTC
Wind: Calm:0
Visibility: 10 mile(s):0
Sky conditions: clear
Temperature: 43.0 F (6.1 C)
Dew Point: 34.0 F (1.1 C)
Relative Humidity: 70%
Pressure (altimeter): 30.02 in. Hg (1016 hPa)
Pressure tendency: 0.01 inches (0.2 hPa) lower than three hours ago
ob: KEAT 020255Z AUTO 00000KT 10SM CLR 06/01 A3002 RMK AO2 SLP173 T00610011 55002
cycle: 3

Station Type Date Time Source
KEAT TAF 2021/03/01 18:33 UTC NOAA

TAF KEAT 011730Z 0118/0218 VRB02KT P6SM FEW250
FM012100 VRB06KT P6SM OVC250
FM020300 31005KT P6SM SCT250

Example: see airport list